aviador You're here:

KPNS Decoded Metar

PENSACOLA in FL, USA
Report Time2017-08-16 18:53:00
UTC Time2017-08-16 19:34:14
Flight Rules mvfr MVFR
Wind170° at 03 kt
W.Decomp.*RWY 17: 3.0 kt HW 0.1 kt RCW
RWY 26: 0.1 kt HW 3 kt LCW
W.Rank170° ranks 6
Current wind is below 170° avg. (8.3)
Visibility8047 m
Phenomena:Light Rain
Clouds:Scattered 038 Hf
Broken 045 Hf
Broken 055 Hf
Expected CloudBase > 800 ft AGL from Temp-Dew spread
Ceiling4,500 ft
Temp28°C (ISA +13)
Dew Point26°C (89% RH)
Heat Index33.6°C
QNH1018 hPa
Density Alt1,923 ft
Elevation125 ft
Report Wrong Elevation
Raw Report
METAR KPNS 161853Z 17003KT 5SM -RA SCT038 BKN045 BKN055 28/26 A3006
RMK AO2 LTG DSNT E AND NW TSE29 SLP180 P0092 T02830256=

Extra information for KPNS:More info

Metar Taf Metar & Taf Last 4 Metars F.Rules Stats Wind Profile Meteogram Temp Stats Airport Information Weather charts Add Link Nearby VenuesMetar ALERT Operation Metar Decoded Social comments

AIRNAV info for KPNS